Time;durP1;ratioP1;P1;durP2;ratioP2;P2;SDS_P1;SDS_P2;PMS_P1;PMS_P2;Temp;Humidity;BMP_temperature;BMP_pressure;BME280_temperature;BME280_humidity;BME280_pressure;Samples;Min_cycle;Max_cycle;Signal;HPM_P1;HPM_P2
2021/01/14 00:00:36;;;;;;;22.55;11.70;;;;;;;2.49;61.75;99125.09;4445028;32;33542;-83
2021/01/14 00:03:05;;;;;;;18.55;11.25;;;;;;;2.00;62.71;99120.91;4448597;32;34697;-83
2021/01/14 00:05:32;;;;;;;20.30;10.40;;;;;;;2.27;62.77;99120.31;4448600;32;32770;-83
2021/01/14 00:08:00;;;;;;;17.85;10.02;;;;;;;2.33;62.22;99115.88;4441940;32;34340;-84
2021/01/14 00:10:27;;;;;;;18.75;10.00;;;;;;;2.20;62.48;99102.28;4434341;32;33385;-83
2021/01/14 00:12:55;;;;;;;19.90;11.35;;;;;;;2.53;61.45;99100.69;4447855;32;33763;-83
2021/01/14 00:15:22;;;;;;;21.60;11.18;;;;;;;2.61;61.70;99093.56;4443805;32;35508;-83
2021/01/14 00:17:49;;;;;;;19.58;11.68;;;;;;;2.69;61.53;99086.41;4462309;32;33039;-83
2021/01/14 00:20:19;;;;;;;20.27;10.32;;;;;;;2.58;61.96;99077.97;4458045;32;33570;-82
2021/01/14 00:22:46;;;;;;;21.35;12.32;;;;;;;3.14;60.07;99078.37;4456839;32;34448;-82
2021/01/14 00:25:15;;;;;;;19.45;11.20;;;;;;;3.36;59.40;99086.50;4447102;32;34573;-82
2021/01/14 00:27:42;;;;;;;17.83;10.82;;;;;;;3.33;59.42;99086.59;4444021;32;33325;-82
2021/01/14 00:30:16;;;;;;;19.30;11.57;;;;;;;3.45;58.85;99085.41;4445424;32;33676;-82
2021/01/14 00:32:45;;;;;;;18.98;11.95;;;;;;;3.76;57.92;99090.69;4459450;32;33768;-82
2021/01/14 00:35:13;;;;;;;23.17;12.65;;;;;;;3.46;58.55;99090.56;4447766;32;33510;-82
2021/01/14 00:37:50;;;;;;;23.05;12.70;;;;;;;3.21;59.93;99090.34;4444505;32;33562;-82
2021/01/14 00:40:26;;;;;;;23.67;13.05;;;;;;;3.04;60.53;99098.62;4457929;32;34526;-84
2021/01/14 00:43:05;;;;;;;22.42;12.82;;;;;;;2.77;61.50;99109.69;4430578;32;32785;-83
2021/01/14 00:45:33;;;;;;;25.75;13.38;;;;;;;3.12;60.44;99095.81;4459706;32;33401;-83
2021/01/14 00:48:00;;;;;;;24.45;14.38;;;;;;;2.29;63.55;99105.53;4460300;32;33282;-83
2021/01/14 00:50:28;;;;;;;24.05;12.68;;;;;;;2.33;62.92;99108.06;4444988;32;33620;-83
2021/01/14 00:52:56;;;;;;;18.85;10.80;;;;;;;2.43;62.48;99099.19;4459149;32;33438;-83
2021/01/14 00:55:23;;;;;;;22.48;13.30;;;;;;;2.78;61.56;99117.47;4445513;32;34648;-83
2021/01/14 00:57:51;;;;;;;26.42;14.00;;;;;;;2.47;63.05;99121.66;4444520;32;33093;-84
2021/01/14 01:00:20;;;;;;;22.50;12.93;;;;;;;1.95;64.90;99118.41;4457702;32;34386;-84
2021/01/14 01:02:51;;;;;;;21.95;12.30;;;;;;;1.66;65.26;99126.78;4450976;32;33458;-84
2021/01/14 01:05:20;;;;;;;20.62;11.32;;;;;;;2.09;63.37;99119.84;4449038;32;33695;-84
2021/01/14 01:07:59;;;;;;;24.30;12.10;;;;;;;2.42;62.67;99119.19;4449681;32;34845;-84
2021/01/14 01:10:27;;;;;;;19.65;10.02;;;;;;;1.93;63.45;99120.16;4445785;32;33278;-84
2021/01/14 01:12:56;;;;;;;16.37;9.35;;;;;;;2.20;61.88;99116.16;4440857;32;34515;-83
2021/01/14 01:15:24;;;;;;;13.95;8.02;;;;;;;2.79;60.22;99111.38;4446932;32;33718;-83
2021/01/14 01:17:52;;;;;;;12.20;6.28;;;;;;;2.97;58.71;99104.88;4457687;32;32908;-84
2021/01/14 01:20:20;;;;;;;13.30;6.93;;;;;;;3.32;57.71;99097.91;4443503;32;33801;-83
2021/01/14 01:22:47;;;;;;;11.85;6.12;;;;;;;3.58;56.21;99098.09;4462622;32;34409;-84
2021/01/14 01:25:14;;;;;;;8.38;4.35;;;;;;;3.52;55.55;99094.81;4447445;32;33626;-84
2021/01/14 01:27:42;;;;;;;8.77;4.68;;;;;;;3.63;54.79;99091.91;4460511;32;32985;-84
2021/01/14 01:30:10;;;;;;;9.70;4.12;;;;;;;3.57;54.71;99085.94;4447396;32;34320;-83
2021/01/14 01:32:37;;;;;;;6.93;3.80;;;;;;;3.92;53.76;99078.03;4460499;32;34670;-83
2021/01/14 01:35:05;;;;;;;5.80;4.00;;;;;;;3.78;54.06;99074.06;4449923;32;33833;-83
2021/01/14 01:37:33;;;;;;;9.65;4.20;;;;;;;3.70;53.83;99077.75;4466744;32;33276;-83
2021/01/14 01:40:00;;;;;;;5.80;3.70;;;;;;;3.67;54.36;99070.87;4445431;32;33410;-83
2021/01/14 01:42:27;;;;;;;6.62;3.53;;;;;;;3.88;53.96;99071.19;4436715;32;34086;-84
2021/01/14 01:44:55;;;;;;;5.32;3.00;;;;;;;3.97;52.75;99069.16;4464093;32;34573;-83
2021/01/14 01:47:32;;;;;;;8.07;3.28;;;;;;;3.47;54.74;99061.00;4459710;32;34225;-83
2021/01/14 01:50:05;;;;;;;6.03;3.30;;;;;;;4.16;52.07;99056.41;4454231;32;33578;-83
2021/01/14 01:52:33;;;;;;;5.25;2.72;;;;;;;4.11;52.11;99048.72;4460362;32;34775;-83
2021/01/14 01:55:02;;;;;;;6.05;3.33;;;;;;;4.15;52.17;99038.19;4447836;32;34376;-83
2021/01/14 01:57:31;;;;;;;3.22;2.10;;;;;;;3.89;53.17;99042.41;4461935;32;33226;-82
2021/01/14 01:59:59;;;;;;;5.12;2.17;;;;;;;4.59;51.38;99028.97;4462880;32;33635;-83
2021/01/14 02:02:28;;;;;;;4.55;2.40;;;;;;;4.56;51.55;99032.56;4465760;32;33482;-83
2021/01/14 02:04:57;;;;;;;2.85;1.98;;;;;;;4.23;52.42;99031.84;4461826;32;33653;-84
2021/01/14 02:07:36;;;;;;;4.05;1.98;;;;;;;4.34;52.19;99029.75;4447140;32;33278;-83
2021/01/14 02:10:31;;;;;;;3.33;1.60;;;;;;;4.58;51.12;99022.03;4447667;32;33746;-83
2021/01/14 02:13:12;;;;;;;3.08;1.40;;;;;;;4.23;52.60;99015.31;4449279;32;33848;-83
2021/01/14 02:15:40;;;;;;;3.08;1.50;;;;;;;4.38;52.18;99004.38;4448526;32;34648;-83
2021/01/14 02:18:07;;;;;;;2.08;1.23;;;;;;;4.11;52.52;98998.22;4461702;32;33316;-84
2021/01/14 02:20:36;;;;;;;2.40;1.40;;;;;;;3.99;53.54;98991.62;4463182;32;34553;-83
2021/01/14 02:23:21;;;;;;;2.17;0.77;;;;;;;4.01;53.41;98974.13;4446570;32;33791;-83
2021/01/14 02:26:16;;;;;;;2.28;1.25;;;;;;;4.55;52.09;98968.06;4434052;32;34578;-84
2021/01/14 02:28:45;;;;;;;4.45;1.35;;;;;;;4.08;53.65;98964.34;4450610;32;33038;-83
2021/01/14 02:31:13;;;;;;;1.87;1.17;;;;;;;3.76;54.41;98952.28;4446546;32;34474;-83
2021/01/14 02:33:41;;;;;;;1.95;1.05;;;;;;;4.23;53.20;98940.38;4464293;32;33419;-83
2021/01/14 02:36:09;;;;;;;2.22;0.85;;;;;;;3.75;53.36;98941.00;4449666;32;33506;-83
2021/01/14 02:38:36;;;;;;;2.25;1.00;;;;;;;3.91;52.57;98933.53;4448791;32;33137;-83
2021/01/14 02:41:04;;;;;;;1.87;0.80;;;;;;;4.17;52.51;98932.72;4458354;32;34022;-83
2021/01/14 02:43:31;;;;;;;1.75;1.00;;;;;;;4.10;52.57;98926.84;4448370;32;33649;-82
2021/01/14 02:45:58;;;;;;;1.17;0.73;;;;;;;4.19;52.01;98930.94;4461654;32;33627;-83
2021/01/14 02:48:33;;;;;;;3.80;1.00;;;;;;;4.57;50.83;98915.75;4457082;32;33356;-83
2021/01/14 02:51:05;;;;;;;1.83;0.88;;;;;;;4.38;51.17;98925.97;4449316;32;33576;-83
2021/01/14 02:53:33;;;;;;;2.75;0.95;;;;;;;4.41;51.36;98918.00;4460482;32;34517;-83
2021/01/14 02:56:01;;;;;;;1.15;1.05;;;;;;;3.99;53.12;98912.41;4448752;32;33359;-83
2021/01/14 02:58:28;;;;;;;1.52;0.88;;;;;;;3.54;54.73;98915.50;4452026;32;33295;-83
2021/01/14 03:00:56;;;;;;;1.45;0.95;;;;;;;3.45;55.56;98906.19;4463804;32;34246;-83
2021/01/14 03:03:23;;;;;;;2.15;0.90;;;;;;;3.25;56.01;98909.38;4447811;32;33170;-82
2021/01/14 03:05:50;;;;;;;1.52;0.75;;;;;;;3.29;56.13;98900.56;4463189;32;33660;-82
2021/01/14 03:08:18;;;;;;;1.45;0.70;;;;;;;3.51;55.81;98889.47;4462742;32;34167;-82
2021/01/14 03:10:46;;;;;;;1.98;1.05;;;;;;;3.77;55.38;98892.19;4449375;32;32986;-82
2021/01/14 03:13:13;;;;;;;1.77;0.93;;;;;;;3.73;55.37;98892.31;4447574;32;33794;-83
2021/01/14 03:15:40;;;;;;;2.45;1.10;;;;;;;3.63;55.94;98890.88;4444192;32;33434;-82
2021/01/14 03:18:11;;;;;;;3.42;1.23;;;;;;;3.73;55.74;98885.34;4447105;32;33049;-83
2021/01/14 03:20:39;;;;;;;1.55;1.20;;;;;;;3.60;56.38;98881.37;4460233;32;33292;-83
2021/01/14 03:23:06;;;;;;;7.18;3.20;;;;;;;3.35;57.47;98883.88;4446481;32;33429;-83
2021/01/14 03:25:36;;;;;;;1.75;1.20;;;;;;;3.41;57.55;98880.22;4447764;32;33652;-83
2021/01/14 03:28:03;;;;;;;4.00;1.60;;;;;;;3.64;57.19;98872.56;4454723;32;34099;-82
2021/01/14 03:30:30;;;;;;;1.95;1.30;;;;;;;3.16;58.76;98874.88;4459131;32;33804;-82
2021/01/14 03:32:58;;;;;;;1.73;1.08;;;;;;;3.13;58.63;98873.19;4448693;32;33707;-83
2021/01/14 03:35:25;;;;;;;1.83;1.15;;;;;;;3.17;59.04;98864.38;4447901;32;32887;-83
2021/01/14 03:37:52;;;;;;;1.70;1.05;;;;;;;3.48;58.09;98868.72;4447224;32;32598;-84
2021/01/14 03:40:19;;;;;;;2.08;1.20;;;;;;;3.71;57.24;98862.81;4457779;32;33546;-83
2021/01/14 03:42:46;;;;;;;4.30;1.60;;;;;;;3.50;58.42;98861.69;4461467;32;34413;-83
2021/01/14 03:45:14;;;;;;;4.25;1.95;;;;;;;3.72;57.87;98857.53;4448701;32;34267;-83
2021/01/14 03:47:41;;;;;;;3.87;1.50;;;;;;;3.63;58.18;98857.81;4449142;32;34485;-83
2021/01/14 03:50:09;;;;;;;1.92;1.45;;;;;;;3.75;57.81;98849.59;4461066;32;33556;-83
2021/01/14 03:52:37;;;;;;;2.12;1.80;;;;;;;3.92;57.34;98856.03;4438455;32;33875;-83
2021/01/14 03:55:05;;;;;;;3.65;2.58;;;;;;;3.38;59.14;98857.69;4463023;32;34630;-83
2021/01/14 03:57:36;;;;;;;3.30;2.53;;;;;;;2.87;60.55;98862.66;4458053;32;33113;-83
2021/01/14 04:00:08;;;;;;;4.30;2.60;;;;;;;3.45;58.93;98863.56;4459868;32;33415;-84
2021/01/14 04:02:40;;;;;;;5.50;3.28;;;;;;;4.09;56.65;98845.91;4459834;32;33447;-82
2021/01/14 04:05:09;;;;;;;4.50;3.05;;;;;;;3.19;60.03;98848.69;4460552;32;34650;-82
2021/01/14 04:07:36;;;;;;;3.35;2.75;;;;;;;3.94;58.26;98847.28;4464285;32;32887;-82
2021/01/14 04:10:04;;;;;;;6.22;3.40;;;;;;;2.98;61.83;98848.41;4448038;32;33618;-83
2021/01/14 04:12:32;;;;;;;8.90;3.90;;;;;;;3.51;60.23;98839.91;4436229;32;36237;-83
2021/01/14 04:14:59;;;;;;;5.62;3.62;;;;;;;3.54;60.58;98838.06;4447095;32;33353;-85
2021/01/14 04:17:27;;;;;;;4.93;3.05;;;;;;;4.18;58.38;98837.78;4462256;32;34156;-84
2021/01/14 04:19:55;;;;;;;6.62;3.33;;;;;;;3.83;59.31;98839.75;4464274;32;34547;-84
2021/01/14 04:22:22;;;;;;;4.55;3.42;;;;;;;3.80;59.56;98833.78;4461339;32;33681;-84
2021/01/14 04:24:49;;;;;;;6.50;3.75;;;;;;;3.62;60.31;98835.22;4444590;32;34090;-84
2021/01/14 04:27:17;;;;;;;9.93;4.57;;;;;;;4.20;58.27;98837.72;4460965;32;33339;-86
2021/01/14 04:29:44;;;;;;;6.68;4.05;;;;;;;3.84;59.20;98840.59;4448090;32;34245;-84
2021/01/14 04:32:12;;;;;;;8.80;5.50;;;;;;;3.88;59.03;98841.38;4443608;32;33510;-84
2021/01/14 04:34:41;;;;;;;8.63;4.78;;;;;;;3.55;59.95;98833.69;4449491;32;34093;-84
2021/01/14 04:37:09;;;;;;;8.48;4.80;;;;;;;3.66;59.45;98842.06;4443760;32;33162;-84
2021/01/14 04:39:36;;;;;;;8.80;5.85;;;;;;;3.61;59.75;98833.50;4445427;32;33416;-84
2021/01/14 04:42:07;;;;;;;9.73;5.35;;;;;;;3.63;59.94;98836.91;4446446;32;33747;-84
2021/01/14 04:44:34;;;;;;;10.02;4.60;;;;;;;3.89;59.30;98823.03;4446408;32;33723;-84
2021/01/14 04:47:12;;;;;;;8.05;4.82;;;;;;;4.39;57.88;98825.72;4458842;32;33229;-85
2021/01/14 04:49:40;;;;;;;8.65;4.93;;;;;;;4.23;58.65;98819.34;4459517;32;33266;-84
2021/01/14 04:52:15;;;;;;;9.27;4.65;;;;;;;4.07;59.61;98826.81;4459093;32;34731;-84
2021/01/14 04:54:46;;;;;;;7.65;5.10;;;;;;;4.39;58.98;98814.44;4462307;32;31727;-84
2021/01/14 04:57:19;;;;;;;8.60;4.87;;;;;;;3.97;60.76;98825.41;4463058;32;33257;-83
2021/01/14 04:59:52;;;;;;;10.85;5.30;;;;;;;3.74;61.46;98826.97;4462060;32;32948;-84
2021/01/14 05:02:24;;;;;;;10.80;6.12;;;;;;;3.87;61.52;98826.59;4448535;32;33953;-84
2021/01/14 05:04:52;;;;;;;7.35;4.32;;;;;;;3.84;61.96;98836.22;4463263;32;33617;-84
2021/01/14 05:07:33;;;;;;;7.40;4.37;;;;;;;4.05;61.63;98833.84;4453924;32;31896;-84
2021/01/14 05:10:02;;;;;;;8.05;4.22;;;;;;;3.93;62.23;98829.00;4446150;32;33575;-85
2021/01/14 05:12:34;;;;;;;7.05;4.43;;;;;;;3.94;62.04;98828.09;4449420;32;34694;-84
2021/01/14 05:15:02;;;;;;;8.05;4.53;;;;;;;3.93;62.11;98827.25;4457905;32;34415;-84
2021/01/14 05:17:29;;;;;;;6.43;4.45;;;;;;;3.66;62.76;98823.78;4447987;32;34398;-83
2021/01/14 05:19:56;;;;;;;9.00;5.00;;;;;;;3.92;61.92;98819.47;4463033;32;33638;-83
2021/01/14 05:22:24;;;;;;;7.72;4.65;;;;;;;3.60;62.73;98819.59;4449198;32;33399;-83
2021/01/14 05:25:13;;;;;;;6.93;4.37;;;;;;;4.01;61.63;98811.34;4459162;32;34530;-83
2021/01/14 05:27:41;;;;;;;6.78;4.35;;;;;;;3.85;62.04;98822.28;4460848;32;32844;-84
2021/01/14 05:30:10;;;;;;;7.43;4.75;;;;;;;3.63;62.65;98829.09;4450032;32;34425;-84
2021/01/14 05:32:39;;;;;;;6.05;4.93;;;;;;;3.77;62.67;98826.06;4462594;32;33784;-83
2021/01/14 05:35:12;;;;;;;9.25;6.47;;;;;;;3.27;64.28;98829.28;4458917;32;33690;-83
2021/01/14 05:37:43;;;;;;;12.93;6.50;;;;;;;3.50;64.42;98826.00;4460028;32;34287;-83
2021/01/14 05:40:13;;;;;;;11.63;7.35;;;;;;;2.81;67.60;98830.62;4448131;32;33590;-83
2021/01/14 05:42:40;;;;;;;11.05;7.15;;;;;;;2.50;68.74;98840.16;4449799;32;33441;-84
2021/01/14 05:45:34;;;;;;;13.23;7.35;;;;;;;3.25;65.92;98836.31;4447624;32;32069;-83
2021/01/14 05:48:07;;;;;;;12.65;7.47;;;;;;;3.42;65.57;98827.13;4438842;32;32866;-82
2021/01/14 05:50:45;;;;;;;15.05;8.05;;;;;;;3.24;66.07;98821.56;4459562;32;33305;-83
2021/01/14 05:53:18;;;;;;;14.25;8.00;;;;;;;3.10;66.75;98817.66;4458880;32;33670;-83
2021/01/14 05:55:50;;;;;;;11.90;7.90;;;;;;;3.36;65.81;98822.94;4439170;32;32274;-83
2021/01/14 05:58:19;;;;;;;12.48;8.52;;;;;;;3.41;65.77;98820.19;4446349;32;32781;-83
2021/01/14 06:00:48;;;;;;;13.98;8.10;;;;;;;3.47;65.71;98828.72;4459483;32;33150;-84
2021/01/14 06:03:23;;;;;;;12.02;8.07;;;;;;;3.57;65.14;98826.69;4460271;32;33616;-84
2021/01/14 06:05:51;;;;;;;15.95;9.23;;;;;;;3.08;66.90;98825.50;4454754;32;34122;-86
2021/01/14 06:08:22;;;;;;;15.82;9.02;;;;;;;3.07;67.39;98821.19;4457651;32;34842;-85
2021/01/14 06:10:50;;;;;;;15.75;9.90;;;;;;;3.54;65.46;98816.31;4447199;32;33261;-85
2021/01/14 06:13:17;;;;;;;13.48;7.87;;;;;;;3.34;66.29;98819.53;4447316;32;33813;-85
2021/01/14 06:15:57;;;;;;;11.63;8.10;;;;;;;3.52;65.32;98841.63;4460013;32;30888;-85
2021/01/14 06:18:25;;;;;;;12.10;7.85;;;;;;;3.34;66.29;98841.28;4448502;32;32772;-85
2021/01/14 06:20:53;;;;;;;11.12;7.28;;;;;;;3.19;67.17;98846.94;4445572;32;34914;-85
2021/01/14 06:23:25;;;;;;;13.18;7.37;;;;;;;3.05;67.89;98843.88;4460396;32;34658;-85
2021/01/14 06:25:54;;;;;;;11.38;6.30;;;;;;;3.33;66.80;98844.78;4456281;32;35326;-86
2021/01/14 06:28:32;;;;;;;10.07;6.65;;;;;;;3.38;66.64;98843.78;4447627;32;33999;-86
2021/01/14 06:31:04;;;;;;;8.02;5.65;;;;;;;2.78;68.93;98842.87;4459598;32;31581;-86
2021/01/14 06:33:31;;;;;;;9.30;6.60;;;;;;;3.19;66.89;98833.91;4445466;32;32819;-86
2021/01/14 06:36:09;;;;;;;9.20;6.15;;;;;;;3.33;66.69;98826.53;4445309;32;33969;-86
2021/01/14 06:38:43;;;;;;;11.00;6.90;;;;;;;3.44;66.29;98833.16;4435101;32;34241;-85
2021/01/14 06:41:22;;;;;;;13.73;8.45;;;;;;;3.34;66.41;98825.63;4462417;32;34600;-86
2021/01/14 06:43:50;;;;;;;12.93;7.43;;;;;;;2.99;67.92;98833.59;4460458;32;33578;-86
2021/01/14 06:46:20;;;;;;;11.95;7.47;;;;;;;2.30;69.80;98828.53;4435609;32;34147;-86
2021/01/14 06:49:03;;;;;;;10.98;7.20;;;;;;;2.60;69.26;98830.34;4458388;32;32550;-87
2021/01/14 06:51:46;;;;;;;15.68;9.80;;;;;;;2.77;68.69;98822.94;4464982;32;35925;-87
2021/01/14 06:54:14;;;;;;;14.15;8.68;;;;;;;2.87;68.57;98828.75;4468584;32;35399;-85
2021/01/14 06:56:58;;;;;;;16.17;8.25;;;;;;;3.09;67.31;98819.44;4463711;32;33760;-86
2021/01/14 06:59:26;;;;;;;9.25;6.93;;;;;;;3.20;66.61;98817.34;4462584;32;33535;-87
2021/01/14 07:02:06;;;;;;;11.32;6.97;;;;;;;3.24;65.74;98813.75;4431757;32;35295;-86
2021/01/14 07:04:52;;;;;;;10.45;6.70;;;;;;;2.55;67.97;98833.09;4460820;32;33853;-87
2021/01/14 07:07:26;;;;;;;11.27;7.15;;;;;;;2.94;66.79;98822.44;4447959;32;33566;-86
2021/01/14 07:10:06;;;;;;;10.00;6.37;;;;;;;2.86;67.23;98824.44;4449349;32;33609;-88
2021/01/14 07:12:36;;;;;;;11.98;6.50;;;;;;;2.82;67.55;98824.50;4455002;32;34881;-88
2021/01/14 07:15:09;;;;;;;9.43;6.10;;;;;;;2.80;67.58;98808.06;4458341;32;35110;-89
2021/01/14 07:17:46;;;;;;;10.50;6.40;;;;;;;2.51;69.13;98821.03;4456758;32;35621;-85
2021/01/14 07:20:15;;;;;;;11.35;6.57;;;;;;;2.76;68.19;98810.81;4455931;32;35128;-84
2021/01/14 07:22:46;;;;;;;12.07;7.28;;;;;;;2.63;68.81;98815.50;4449058;32;31732;-84
2021/01/14 07:25:14;;;;;;;10.23;6.65;;;;;;;3.13;66.98;98800.16;4446974;32;35780;-84
2021/01/14 07:27:43;;;;;;;12.23;7.25;;;;;;;2.77;68.43;98809.91;4447326;32;34484;-84
2021/01/14 07:30:11;;;;;;;11.60;7.00;;;;;;;2.55;69.49;98807.03;4457635;32;33137;-85
2021/01/14 07:32:58;;;;;;;28.20;12.40;;;;;;;2.85;68.55;98804.47;4448762;32;32660;-85
2021/01/14 07:35:40;;;;;;;13.18;8.13;;;;;;;2.70;69.00;98822.22;4446247;32;34941;-84
2021/01/14 07:38:15;;;;;;;10.90;6.70;;;;;;;2.70;69.10;98822.22;4460343;32;33054;-84
2021/01/14 07:41:00;;;;;;;9.77;6.00;;;;;;;2.56;69.59;98825.25;4455762;32;30956;-84
2021/01/14 07:43:32;;;;;;;7.85;5.75;;;;;;;2.67;69.05;98829.31;4456759;32;33126;-84
2021/01/14 07:46:17;;;;;;;10.77;5.00;;;;;;;2.72;68.40;98822.22;4455323;32;33589;-84
2021/01/14 07:48:44;;;;;;;8.27;5.18;;;;;;;2.49;68.47;98818.47;4454285;32;34071;-84
2021/01/14 07:51:12;;;;;;;6.28;4.55;;;;;;;2.39;68.54;98824.81;4447406;32;34885;-83
2021/01/14 07:53:39;;;;;;;8.13;4.80;;;;;;;2.34;68.34;98821.50;4445110;32;33727;-84
2021/01/14 07:56:27;;;;;;;6.43;4.32;;;;;;;2.66;66.52;98819.75;4460237;32;33542;-84
2021/01/14 07:58:58;;;;;;;6.47;4.22;;;;;;;2.34;67.05;98823.25;4449358;32;34964;-84
2021/01/14 08:01:25;;;;;;;11.15;4.65;;;;;;;2.28;67.21;98832.94;4447741;32;34660;-84
2021/01/14 08:03:52;;;;;;;10.80;4.75;;;;;;;2.44;66.49;98845.56;4460093;32;31336;-84
2021/01/14 08:06:30;;;;;;;7.68;4.32;;;;;;;2.52;66.26;98856.63;4449492;32;34468;-84
2021/01/14 08:09:08;;;;;;;5.50;4.00;;;;;;;2.47;65.77;98850.66;4453483;32;33723;-84
2021/01/14 08:11:36;;;;;;;7.95;4.45;;;;;;;2.25;66.32;98855.59;4449046;32;32069;-84
2021/01/14 08:14:17;;;;;;;13.05;5.28;;;;;;;2.17;66.92;98860.97;4463702;32;32681;-84
2021/01/14 08:16:44;;;;;;;7.82;5.05;;;;;;;2.69;64.17;98854.41;4444551;32;34247;-87
2021/01/14 08:19:29;;;;;;;12.13;5.62;;;;;;;2.44;65.26;98861.19;4459072;32;33346;-87
2021/01/14 08:22:05;;;;;;;20.40;9.32;;;;;;;2.33;65.33;98861.47;4456151;32;33214;-84
2021/01/14 08:24:55;;;;;;;14.55;7.97;;;;;;;2.64;64.68;98858.91;4460389;32;33629;-84
2021/01/14 08:27:35;;;;;;;9.25;5.65;;;;;;;2.52;65.06;98859.25;4458867;32;33383;-84
2021/01/14 08:30:05;;;;;;;12.60;5.62;;;;;;;2.60;64.97;98856.41;4446836;32;33102;-84
2021/01/14 08:32:47;;;;;;;12.07;6.32;;;;;;;2.66;64.26;98859.72;4464730;32;33436;-84
2021/01/14 08:35:22;;;;;;;7.20;5.05;;;;;;;3.02;62.91;98862.22;4447468;32;35579;-83
2021/01/14 08:37:57;;;;;;;10.00;4.75;;;;;;;2.92;62.99;98863.38;4459369;32;33704;-84
2021/01/14 08:40:30;;;;;;;7.32;3.67;;;;;;;2.83;63.82;98865.31;4464807;32;33869;-83
2021/01/14 08:43:07;;;;;;;6.62;2.90;;;;;;;3.11;62.04;98863.72;4461524;32;33089;-84
2021/01/14 08:45:41;;;;;;;3.03;2.20;;;;;;;3.11;61.81;98859.34;4458250;32;32530;-83
2021/01/14 08:48:12;;;;;;;2.58;1.62;;;;;;;3.01;61.95;98863.97;4449809;32;33450;-83
2021/01/14 08:50:46;;;;;;;3.12;1.37;;;;;;;3.10;60.32;98862.84;4425908;32;35494;-83
2021/01/14 08:53:19;;;;;;;3.25;1.30;;;;;;;3.08;60.68;98872.47;4459137;32;33706;-83
2021/01/14 08:55:55;;;;;;;2.72;1.35;;;;;;;3.23;59.32;98874.66;4457729;32;35389;-83
2021/01/14 08:58:43;;;;;;;4.30;1.90;;;;;;;3.30;58.66;98886.59;4463636;32;33586;-83
2021/01/14 09:01:18;;;;;;;1.35;1.15;;;;;;;3.13;60.64;98903.63;4461266;32;34229;-83
2021/01/14 09:03:47;;;;;;;3.37;1.20;;;;;;;3.40;57.10;98902.00;4450850;32;32837;-83
2021/01/14 09:06:16;;;;;;;1.98;0.98;;;;;;;3.44;57.29;98907.09;4449646;32;34170;-83
2021/01/14 09:08:51;;;;;;;5.43;2.55;;;;;;;3.63;55.88;98902.19;4459265;32;33719;-83
2021/01/14 09:11:26;;;;;;;6.87;1.62;;;;;;;3.11;58.27;98905.44;4460744;32;31379;-83
2021/01/14 09:14:07;;;;;;;8.27;2.95;;;;;;;3.52;56.28;98905.13;4457318;32;34151;-83
2021/01/14 09:16:36;;;;;;;3.77;1.80;;;;;;;3.50;57.21;98919.09;4449602;32;35442;-83
2021/01/14 09:19:17;;;;;;;2.62;1.52;;;;;;;3.75;57.71;98912.28;4458012;32;33715;-83
2021/01/14 09:21:45;;;;;;;3.37;1.58;;;;;;;4.16;55.00;98912.72;4459743;32;33312;-83
2021/01/14 09:24:14;;;;;;;3.28;1.40;;;;;;;4.09;55.63;98913.84;4448806;32;33884;-85
2021/01/14 09:26:42;;;;;;;1.77;1.05;;;;;;;4.27;55.89;98928.94;4449046;32;35482;-83
2021/01/14 09:29:15;;;;;;;1.80;0.93;;;;;;;3.90;55.90;98934.44;4461913;32;33556;-83
2021/01/14 09:31:43;;;;;;;3.67;1.40;;;;;;;4.21;53.87;98929.09;4463718;32;33680;-83
2021/01/14 09:34:10;;;;;;;6.03;1.48;;;;;;;3.94;56.56;98936.06;4436063;32;35268;-82
2021/01/14 09:36:37;;;;;;;1.83;1.33;;;;;;;4.39;53.52;98942.50;4462511;32;33611;-83
2021/01/14 09:39:06;;;;;;;1.85;1.60;;;;;;;4.29;52.78;98941.94;4459591;32;33725;-83
2021/01/14 09:41:36;;;;;;;2.20;1.17;;;;;;;4.12;52.95;98960.75;4459330;32;33677;-86
2021/01/14 09:44:13;;;;;;;3.53;1.37;;;;;;;3.82;54.04;98968.62;4440918;32;34975;-86
2021/01/14 09:46:45;;;;;;;2.42;1.48;;;;;;;3.33;56.26;98962.19;4461069;32;33354;-85
2021/01/14 09:49:14;;;;;;;2.97;1.67;;;;;;;3.51;54.83;98965.16;4462497;32;33680;-85
2021/01/14 09:51:43;;;;;;;2.28;1.20;;;;;;;3.07;56.98;98978.53;4447830;32;35621;-85
2021/01/14 09:54:11;;;;;;;7.57;1.15;;;;;;;3.27;55.69;98974.53;4445115;32;33632;-85
2021/01/14 09:56:50;;;;;;;2.78;1.12;;;;;;;3.35;57.09;98983.03;4468335;32;34446;-85
2021/01/14 09:59:34;;;;;;;4.93;1.05;;;;;;;3.29;56.76;98973.63;4444308;32;33321;-85
2021/01/14 10:02:24;;;;;;;3.50;2.15;;;;;;;3.79;56.28;98973.06;4443064;32;34449;-85
2021/01/14 10:04:56;;;;;;;3.15;1.67;;;;;;;4.16;53.61;98983.25;4468354;32;33870;-85
2021/01/14 10:07:25;;;;;;;3.62;1.20;;;;;;;3.96;55.17;98969.97;4466870;32;34244;-85
2021/01/14 10:09:53;;;;;;;10.85;4.53;;;;;;;4.35;53.08;98980.94;4448219;32;33804;-85
2021/01/14 10:12:21;;;;;;;2.37;1.40;;;;;;;4.26;54.47;98987.31;4469529;32;34550;-85
2021/01/14 10:14:48;;;;;;;2.90;1.62;;;;;;;4.56;52.93;98987.25;4433698;32;34155;-85
2021/01/14 10:17:17;;;;;;;3.12;1.17;;;;;;;4.69;52.96;98985.94;4457778;32;33562;-85
2021/01/14 10:19:50;;;;;;;1.85;0.93;;;;;;;4.70;52.95;98985.06;4467509;32;33840;-84
2021/01/14 10:22:22;;;;;;;1.50;1.08;;;;;;;4.25;53.64;98972.53;4454919;32;33894;-85
2021/01/14 10:24:49;;;;;;;4.93;1.02;;;;;;;4.20;55.01;98969.22;4444856;32;33345;-85
2021/01/14 10:27:17;;;;;;;1.73;1.23;;;;;;;4.29;54.52;98960.22;4450330;32;34810;-85
2021/01/14 10:29:46;;;;;;;4.28;1.20;;;;;;;4.61;52.73;98965.28;4461064;32;33760;-84
2021/01/14 10:32:23;;;;;;;2.25;1.30;;;;;;;4.84;52.54;98966.25;4453362;32;33726;-84
2021/01/14 10:34:52;;;;;;;7.65;1.27;;;;;;;4.74;52.64;98976.16;4464303;32;33045;-85
2021/01/14 10:37:29;;;;;;;3.50;1.52;;;;;;;4.76;52.33;98969.16;4454707;32;34345;-84
2021/01/14 10:40:00;;;;;;;4.10;1.75;;;;;;;4.28;55.43;98977.69;4451139;32;32986;-85
2021/01/14 10:42:34;;;;;;;4.78;3.00;;;;;;;4.57;52.86;98971.50;4466198;32;33853;-85
2021/01/14 10:45:08;;;;;;;6.10;1.83;;;;;;;4.49;54.12;98975.28;4463579;32;33842;-85
2021/01/14 10:47:35;;;;;;;;;;;;;;;4.89;52.22;98990.53;4461264;32;34642;-85
2021/01/14 10:50:25;;;;;;;1.90;1.20;;;;;;;4.37;54.78;98987.00;4452629;32;109311;-84
2021/01/14 10:53:08;;;;;;;5.43;1.42;;;;;;;4.61;53.21;98998.41;4447687;32;34111;-85
2021/01/14 10:55:35;;;;;;;3.55;1.37;;;;;;;4.56;52.90;99002.94;4436066;32;33756;-84
2021/01/14 10:58:06;;;;;;;2.42;1.55;;;;;;;4.12;53.86;99006.00;4441408;32;34561;-85
2021/01/14 11:00:40;;;;;;;5.55;1.90;;;;;;;4.40;53.27;99001.69;4465993;32;33898;-85
2021/01/14 11:03:14;;;;;;;1.62;1.40;;;;;;;4.13;54.71;98999.06;4452409;32;33260;-85
2021/01/14 11:05:48;;;;;;;6.12;1.40;;;;;;;3.75;56.20;99008.88;4468951;32;33830;-85
2021/01/14 11:08:18;;;;;;;1.40;0.90;;;;;;;4.17;54.41;99005.03;4450559;32;33673;-85
2021/01/14 11:11:01;;;;;;;3.28;1.35;;;;;;;4.23;53.35;99018.78;4466594;32;34395;-85
2021/01/14 11:13:55;;;;;;;3.45;1.75;;;;;;;4.14;53.92;99003.37;4441558;32;34802;-85
2021/01/14 11:16:26;;;;;;;3.37;1.50;;;;;;;3.92;53.81;99000.53;4460003;32;34377;-85
2021/01/14 11:18:55;;;;;;;4.72;1.80;;;;;;;4.26;53.00;98995.13;4461120;32;33662;-85
2021/01/14 11:21:29;;;;;;;3.25;1.67;;;;;;;4.17;53.91;98989.34;4448565;32;34737;-85
2021/01/14 11:23:58;;;;;;;1.80;1.40;;;;;;;4.08;55.17;98983.53;4462414;32;33436;-85
2021/01/14 11:26:25;;;;;;;3.35;1.55;;;;;;;4.21;53.85;98989.19;4447593;32;34044;-85
2021/01/14 11:29:11;;;;;;;2.45;1.45;;;;;;;4.43;53.63;98975.47;4449812;32;34723;-85
2021/01/14 11:31:38;;;;;;;1.50;1.40;;;;;;;4.67;53.56;98981.66;4468831;32;33929;-85
2021/01/14 11:34:05;;;;;;;2.60;1.50;;;;;;;4.96;52.04;98988.53;4458701;32;34531;-85
2021/01/14 11:36:32;;;;;;;5.70;1.85;;;;;;;5.27;50.99;98994.44;4461636;32;33756;-85
2021/01/14 11:39:00;;;;;;;2.67;1.27;;;;;;;5.24;50.89;98991.91;4443974;32;33978;-85
2021/01/14 11:41:28;;;;;;;1.77;1.05;;;;;;;4.68;53.32;99010.37;4458671;32;34722;-85
2021/01/14 11:43:55;;;;;;;2.67;1.40;;;;;;;4.39;52.47;99007.84;4464768;32;33767;-85
2021/01/14 11:46:24;;;;;;;2.70;1.60;;;;;;;4.14;53.50;99016.44;4459345;32;32815;-84
2021/01/14 11:48:52;;;;;;;1.70;1.35;;;;;;;3.88;53.85;99016.34;4462055;32;34531;-85
2021/01/14 11:51:20;;;;;;;7.72;3.90;;;;;;;3.66;54.68;99019.59;4465403;32;34619;-85
2021/01/14 11:53:47;;;;;;;2.58;1.80;;;;;;;3.64;55.54;99017.91;4460438;32;33806;-85
2021/01/14 11:56:15;;;;;;;3.35;2.10;;;;;;;3.78;54.98;99014.00;4449942;32;35143;-85
2021/01/14 11:58:43;;;;;;;1.70;1.42;;;;;;;3.78;54.62;99013.13;4461775;32;34571;-85